createdAt,value
2023-01-04T00:01:06.914Z,44.92
2023-01-04T00:03:34.977Z,45.31
2023-01-04T00:06:04.168Z,45.66
2023-01-04T00:08:31.096Z,45.28
2023-01-04T00:11:05.756Z,45.48
2023-01-04T00:13:32.784Z,45.71
2023-01-04T00:16:07.938Z,45.01
2023-01-04T00:18:35.979Z,45.37
2023-01-04T00:21:10.372Z,45.12
2023-01-04T00:23:38.497Z,44.95
2023-01-04T00:26:21.577Z,44.76
2023-01-04T00:28:53.952Z,45.08
2023-01-04T00:31:22.116Z,44.89
2023-01-04T00:33:49.431Z,44.80
2023-01-04T00:36:16.057Z,44.60
2023-01-04T00:38:43.110Z,44.63
2023-01-04T00:41:18.880Z,44.68
2023-01-04T00:43:57.172Z,44.86
2023-01-04T00:46:23.619Z,45.42
2023-01-04T00:48:58.211Z,45.30
2023-01-04T00:51:27.257Z,45.03
2023-01-04T00:53:53.779Z,45.13
2023-01-04T00:56:20.292Z,45.48
2023-01-04T00:58:46.850Z,45.18
2023-01-04T01:01:13.383Z,44.70
2023-01-04T01:03:40.220Z,45.16
2023-01-04T01:06:08.261Z,44.85
2023-01-04T01:08:35.425Z,44.74
2023-01-04T01:11:07.265Z,45.01
2023-01-04T01:13:35.860Z,45.00
2023-01-04T01:16:06.392Z,45.02
2023-01-04T01:18:38.282Z,44.72
2023-01-04T01:21:06.445Z,45.18
2023-01-04T01:23:33.290Z,44.94
2023-01-04T01:26:01.647Z,44.92
2023-01-04T01:28:28.981Z,44.82
2023-01-04T01:30:55.614Z,44.69
2023-01-04T01:33:22.069Z,44.69
2023-01-04T01:35:48.694Z,45.06
2023-01-04T01:38:15.202Z,44.77
2023-01-04T01:40:42.669Z,45.11
2023-01-04T01:43:23.879Z,45.21
2023-01-04T01:45:57.051Z,45.19
2023-01-04T01:48:29.600Z,45.46
2023-01-04T01:51:04.271Z,45.31
2023-01-04T01:53:35.538Z,45.40
2023-01-04T01:56:05.141Z,45.51
2023-01-04T01:58:36.193Z,45.37
2023-01-04T02:01:02.753Z,45.46
2023-01-04T02:03:35.567Z,45.49
2023-01-04T02:06:05.470Z,45.77
2023-01-04T02:08:32.342Z,45.75
2023-01-04T02:10:58.822Z,45.84
2023-01-04T02:13:49.866Z,46.03
2023-01-04T02:16:47.793Z,45.92
2023-01-04T02:19:41.654Z,46.53
2023-01-04T02:22:48.772Z,46.49
2023-01-04T02:25:45.909Z,46.77
2023-01-04T02:28:43.436Z,46.88
2023-01-04T02:31:15.998Z,46.59
2023-01-04T02:33:51.369Z,46.93
2023-01-04T02:36:32.974Z,47.04
2023-01-04T02:39:01.636Z,46.27
2023-01-04T02:41:36.769Z,46.96
2023-01-04T02:44:35.639Z,46.91
2023-01-04T02:47:06.847Z,47.34
2023-01-04T02:49:51.822Z,47.02
2023-01-04T02:52:20.705Z,47.29
2023-01-04T02:54:49.699Z,47.25
2023-01-04T02:57:26.207Z,47.78
2023-01-04T03:00:30.270Z,48.09
2023-01-04T03:03:35.150Z,47.66
2023-01-04T03:06:48.506Z,48.23
2023-01-04T03:09:29.463Z,48.37
2023-01-04T03:12:23.316Z,48.87
2023-01-04T03:15:16.181Z,49.02
2023-01-04T03:17:50.025Z,48.78
2023-01-04T03:20:19.712Z,48.91
2023-01-04T03:23:15.872Z,49.56
2023-01-04T03:26:25.272Z,49.06
2023-01-04T03:29:12.188Z,48.42
2023-01-04T03:32:03.769Z,49.54
2023-01-04T03:34:49.351Z,48.96
2023-01-04T03:37:43.898Z,49.87
2023-01-04T03:40:43.553Z,49.80
2023-01-04T03:43:36.213Z,49.66
2023-01-04T03:46:32.628Z,49.36
2023-01-04T03:49:05.203Z,50.10
2023-01-04T03:51:37.253Z,49.50
2023-01-04T03:54:12.491Z,50.49
2023-01-04T03:56:42.291Z,49.63
2023-01-04T03:59:10.022Z,49.24
2023-01-04T04:01:36.990Z,49.24
2023-01-04T04:04:22.380Z,49.65
2023-01-04T04:07:07.454Z,49.56
2023-01-04T04:09:33.835Z,49.72
2023-01-04T04:12:00.251Z,49.87
2023-01-04T04:14:27.099Z,49.88
2023-01-04T04:16:53.756Z,49.49
2023-01-04T04:19:20.368Z,50.27
2023-01-04T04:21:46.756Z,49.87
2023-01-04T04:24:21.658Z,50.41
2023-01-04T04:26:47.996Z,50.20
2023-01-04T04:29:14.338Z,49.62
2023-01-04T04:31:40.906Z,50.05
2023-01-04T04:34:07.328Z,49.77
2023-01-04T04:36:34.142Z,50.08
2023-01-04T04:39:00.571Z,49.97
2023-01-04T04:41:39.075Z,50.31
2023-01-04T04:44:10.263Z,50.28
2023-01-04T04:46:37.129Z,49.71
2023-01-04T04:49:04.136Z,50.47
2023-01-04T04:51:30.654Z,49.91
2023-01-04T04:53:57.168Z,50.52
2023-01-04T04:56:23.773Z,50.26
2023-01-04T04:58:50.392Z,50.72
2023-01-04T05:01:17.445Z,50.98
2023-01-04T05:03:44.025Z,51.00
2023-01-04T05:06:10.556Z,50.69
2023-01-04T05:08:37.184Z,51.13
2023-01-04T05:11:08.262Z,51.29
2023-01-04T05:13:34.939Z,50.82
2023-01-04T05:16:02.574Z,51.17
2023-01-04T05:18:28.975Z,50.94
2023-01-04T05:20:55.403Z,51.19
2023-01-04T05:23:22.684Z,51.12
2023-01-04T05:25:53.024Z,51.48
2023-01-04T05:28:19.799Z,50.91
2023-01-04T05:30:51.686Z,51.30
2023-01-04T05:33:20.303Z,51.27
2023-01-04T05:35:46.911Z,51.04
2023-01-04T05:38:13.883Z,50.94
2023-01-04T05:40:40.567Z,51.11
2023-01-04T05:43:07.127Z,51.26
2023-01-04T05:45:33.775Z,50.77
2023-01-04T05:48:00.191Z,51.07
2023-01-04T05:50:26.560Z,51.08
2023-01-04T05:52:53.067Z,51.32
2023-01-04T05:55:19.620Z,51.00
2023-01-04T05:57:46.240Z,51.25
2023-01-04T06:00:13.812Z,51.13
2023-01-04T06:02:41.660Z,51.13
2023-01-04T06:05:09.797Z,51.11
2023-01-04T06:07:37.406Z,51.18
2023-01-04T06:10:04.117Z,51.11
2023-01-04T06:12:30.556Z,50.72
2023-01-04T06:14:57.131Z,51.03
2023-01-04T06:17:23.500Z,50.84
2023-01-04T06:19:49.865Z,51.06
2023-01-04T06:22:16.722Z,51.03
2023-01-04T06:24:43.212Z,50.99
2023-01-04T06:27:09.662Z,51.13
2023-01-04T06:29:36.212Z,50.96
2023-01-04T06:32:02.656Z,50.96
2023-01-04T06:34:31.499Z,50.92
2023-01-04T06:36:58.746Z,51.02
2023-01-04T06:39:25.116Z,50.95
2023-01-04T06:41:51.623Z,51.13
2023-01-04T06:44:18.046Z,51.00
2023-01-04T06:46:44.459Z,51.04
2023-01-04T06:49:10.894Z,50.99
2023-01-04T06:51:37.247Z,51.00
2023-01-04T06:54:03.826Z,51.13
2023-01-04T06:56:31.914Z,50.97
2023-01-04T06:58:58.635Z,50.90
2023-01-04T07:01:27.501Z,50.83
2023-01-04T07:03:54.195Z,50.77
2023-01-04T07:06:20.922Z,50.73
2023-01-04T07:08:47.526Z,50.70
2023-01-04T07:11:13.872Z,50.75
2023-01-04T07:13:40.430Z,50.97
2023-01-04T07:16:07.303Z,50.92
2023-01-04T07:18:33.654Z,51.04
2023-01-04T07:21:00.043Z,50.98
2023-01-04T07:23:26.432Z,50.86
2023-01-04T07:25:53.002Z,50.65
2023-01-04T07:28:39.538Z,50.89
2023-01-04T07:31:07.750Z,51.02
2023-01-04T07:33:34.584Z,50.95
2023-01-04T07:36:05.761Z,51.24
2023-01-04T07:38:34.084Z,51.33
2023-01-04T07:41:00.671Z,51.18
2023-01-04T07:43:28.474Z,51.27
2023-01-04T07:45:56.967Z,51.26
2023-01-04T07:48:23.592Z,51.22
2023-01-04T07:50:53.309Z,51.42
2023-01-04T07:53:19.954Z,51.40
2023-01-04T07:55:46.449Z,51.55
2023-01-04T07:58:13.010Z,51.72
2023-01-04T08:00:39.439Z,51.59
2023-01-04T08:03:05.904Z,51.50
2023-01-04T08:05:33.630Z,51.83
2023-01-04T08:08:00.409Z,51.71
2023-01-04T08:10:27.123Z,51.79
2023-01-04T08:12:53.678Z,51.85
2023-01-04T08:15:20.107Z,51.82
2023-01-04T08:17:46.456Z,51.83
2023-01-04T08:20:13.040Z,51.89
2023-01-04T08:22:39.452Z,52.01
2023-01-04T08:25:07.068Z,52.10
2023-01-04T08:27:34.554Z,52.26
2023-01-04T08:30:01.382Z,52.25
2023-01-04T08:32:27.792Z,52.44
2023-01-04T08:34:54.290Z,52.33
2023-01-04T08:37:21.137Z,52.62
2023-01-04T08:39:49.710Z,52.52
2023-01-04T08:42:22.449Z,52.44
2023-01-04T08:44:59.538Z,52.30
2023-01-04T08:47:27.337Z,52.37
2023-01-04T08:49:53.904Z,52.51
2023-01-04T08:52:20.439Z,52.63
2023-01-04T08:54:46.830Z,52.65
2023-01-04T08:57:13.219Z,52.53
2023-01-04T08:59:39.836Z,52.56
2023-01-04T09:02:25.918Z,52.91
2023-01-04T09:04:52.966Z,52.53
2023-01-04T09:07:20.066Z,52.57
2023-01-04T09:09:46.521Z,52.44
2023-01-04T09:12:13.020Z,52.40
2023-01-04T09:14:39.768Z,52.26
2023-01-04T09:17:06.402Z,52.55
2023-01-04T09:19:32.906Z,52.64
2023-01-04T09:21:59.404Z,52.38
2023-01-04T09:24:25.928Z,52.49
2023-01-04T09:26:52.321Z,52.41
2023-01-04T09:29:18.892Z,52.45
2023-01-04T09:31:45.398Z,52.79
2023-01-04T09:34:15.249Z,52.14
2023-01-04T09:36:43.088Z,52.40
2023-01-04T09:39:14.919Z,52.15
2023-01-04T09:42:00.247Z,52.48
2023-01-04T09:47:44.038Z,52.41
2023-01-04T09:50:18.041Z,52.84
2023-01-04T09:53:01.025Z,52.81
2023-01-04T09:55:52.503Z,52.74
2023-01-04T09:58:33.160Z,53.04
2023-01-04T10:01:05.588Z,52.67
2023-01-04T10:03:38.857Z,52.86
2023-01-04T10:06:15.853Z,53.08
2023-01-04T10:08:43.505Z,52.49
2023-01-04T10:11:28.541Z,53.17
2023-01-04T10:14:25.885Z,53.52
2023-01-04T10:17:14.461Z,53.21
2023-01-04T10:21:16.170Z,53.61
2023-01-04T10:23:18.086Z,53.61
2023-01-04T10:26:05.609Z,53.42
2023-01-04T10:28:34.608Z,52.92
2023-01-04T10:31:39.668Z,53.78
2023-01-04T10:34:19.201Z,53.73
2023-01-04T10:36:47.593Z,52.87
2023-01-04T10:39:17.821Z,53.34
2023-01-04T10:41:52.404Z,53.23
2023-01-04T10:44:33.894Z,53.24
2023-01-04T10:47:26.875Z,53.85
2023-01-04T10:49:56.649Z,53.19
2023-01-04T10:52:30.759Z,53.40
2023-01-04T10:55:18.002Z,54.00
2023-01-04T10:58:14.647Z,53.69
2023-01-04T11:00:47.027Z,53.62
2023-01-04T11:03:25.716Z,53.81
2023-01-04T11:06:03.077Z,54.00
2023-01-04T11:08:34.044Z,53.54
2023-01-04T11:11:03.614Z,53.81
2023-01-04T11:13:31.285Z,53.21
2023-01-04T11:15:59.062Z,53.53
2023-01-04T11:18:25.653Z,53.37
2023-01-04T11:20:52.064Z,53.49
2023-01-04T11:23:20.771Z,53.55
2023-01-04T11:25:55.850Z,53.95
2023-01-04T11:28:29.705Z,53.91
2023-01-04T11:31:24.120Z,53.73
2023-01-04T11:34:02.248Z,53.82
2023-01-04T11:36:40.620Z,53.62
2023-01-04T11:39:19.111Z,54.14
2023-01-04T11:42:04.831Z,53.68
2023-01-04T11:44:35.977Z,53.24
2023-01-04T11:47:10.909Z,53.58
2023-01-04T11:49:37.940Z,53.42
2023-01-04T11:52:05.354Z,53.62
2023-01-04T11:54:31.726Z,53.74
2023-01-04T11:57:11.942Z,54.21
2023-01-04T11:59:38.799Z,53.65
2023-01-04T12:02:42.622Z,54.54
2023-01-04T12:05:30.138Z,53.36
2023-01-04T12:07:58.167Z,53.06
2023-01-04T12:10:27.585Z,53.92
2023-01-04T12:12:55.917Z,53.91
2023-01-04T12:15:55.265Z,53.95
2023-01-04T12:18:36.539Z,53.74
2023-01-04T12:21:03.135Z,53.52
2023-01-04T12:23:29.963Z,53.50
2023-01-04T12:25:57.108Z,53.52
2023-01-04T12:28:49.934Z,54.56
2023-01-04T12:31:20.217Z,54.37
2023-01-04T12:34:01.676Z,54.62
2023-01-04T12:36:37.182Z,54.70
2023-01-04T12:39:07.725Z,54.56
2023-01-04T12:41:33.988Z,54.32
2023-01-04T12:44:23.239Z,54.14
2023-01-04T12:47:13.295Z,54.64
2023-01-04T12:49:39.633Z,54.34
2023-01-04T12:54:58.089Z,54.95
2023-01-04T12:57:32.084Z,54.80
2023-01-04T13:00:08.477Z,54.91
2023-01-04T13:02:38.075Z,54.64
2023-01-04T13:08:10.698Z,55.22
2023-01-04T13:10:49.071Z,54.78
2023-01-04T13:13:45.577Z,54.92
2023-01-04T13:16:23.256Z,54.64
2023-01-04T13:18:56.515Z,54.72
2023-01-04T13:21:39.392Z,54.69
2023-01-04T13:24:24.754Z,55.16
2023-01-04T13:26:52.329Z,54.69
2023-01-04T13:29:26.323Z,55.42
2023-01-04T13:32:11.335Z,55.49
2023-01-04T13:34:39.092Z,55.01
2023-01-04T13:37:11.423Z,55.26
2023-01-04T13:39:41.490Z,55.18
2023-01-04T13:42:20.071Z,55.14
2023-01-04T13:45:21.222Z,55.52
2023-01-04T13:47:51.553Z,55.05
2023-01-04T13:50:33.073Z,55.02
2023-01-04T13:53:07.568Z,54.41
2023-01-04T13:55:36.924Z,54.79
2023-01-04T13:58:18.927Z,54.63
2023-01-04T14:00:47.367Z,54.85
2023-01-04T14:03:36.749Z,55.11
2023-01-04T14:06:19.293Z,55.28
2023-01-04T14:09:14.091Z,55.06
2023-01-04T14:12:07.165Z,54.60
2023-01-04T14:15:21.835Z,55.25
2023-01-04T14:17:53.959Z,54.46
2023-01-04T14:20:20.417Z,54.53
2023-01-04T14:22:46.750Z,54.78
2023-01-04T14:25:35.848Z,55.24
2023-01-04T14:28:38.897Z,55.23
2023-01-04T14:31:08.177Z,54.44
2023-01-04T14:33:45.609Z,54.76
2023-01-04T14:36:32.526Z,54.98
2023-01-04T14:39:08.073Z,54.77
2023-01-04T14:41:40.621Z,54.42
2023-01-04T14:44:17.670Z,54.42
2023-01-04T14:46:48.090Z,54.78
2023-01-04T14:49:15.944Z,54.36
2023-01-04T14:51:46.242Z,54.46
2023-01-04T14:54:18.913Z,53.96
2023-01-04T14:56:49.110Z,54.25
2023-01-04T14:59:15.536Z,54.10
2023-01-04T15:01:42.019Z,53.98
2023-01-04T15:04:08.667Z,54.32
2023-01-04T15:06:35.679Z,53.93
2023-01-04T15:09:03.236Z,53.77
2023-01-04T15:11:31.335Z,54.42
2023-01-04T15:13:57.730Z,54.04
2023-01-04T15:16:24.157Z,54.17
2023-01-04T15:18:50.777Z,54.04
2023-01-04T15:21:17.275Z,54.26
2023-01-04T15:23:43.759Z,54.60
2023-01-04T15:26:11.846Z,54.38
2023-01-04T15:28:38.269Z,54.33
2023-01-04T15:31:10.419Z,54.79
2023-01-04T15:33:37.376Z,54.30
2023-01-04T15:36:21.710Z,55.21
2023-01-04T15:38:54.300Z,54.55
2023-01-04T15:41:39.605Z,54.36
2023-01-04T15:44:09.819Z,54.92
2023-01-04T15:46:36.258Z,54.01
2023-01-04T15:49:04.338Z,54.04
2023-01-04T15:51:30.783Z,54.02
2023-01-04T15:53:57.286Z,54.26
2023-01-04T15:56:23.753Z,54.58
2023-01-04T15:58:55.229Z,55.19
2023-01-04T16:01:22.046Z,54.67
2023-01-04T16:03:53.395Z,54.80
2023-01-04T16:06:21.136Z,55.19
2023-01-04T16:08:50.367Z,54.76
2023-01-04T16:11:20.738Z,55.34
2023-01-04T16:13:49.275Z,54.86
2023-01-04T16:16:17.323Z,54.96
2023-01-04T16:18:50.141Z,55.12
2023-01-04T16:21:21.118Z,54.58
2023-01-04T16:24:01.758Z,54.97
2023-01-04T16:26:33.262Z,54.58
2023-01-04T16:29:00.725Z,54.70
2023-01-04T16:31:35.473Z,54.52
2023-01-04T16:34:03.145Z,54.45
2023-01-04T16:36:30.082Z,54.51
2023-01-04T16:38:57.369Z,54.42
2023-01-04T16:41:25.044Z,54.30
2023-01-04T16:43:55.065Z,54.17
2023-01-04T16:46:28.649Z,54.57
2023-01-04T16:49:01.543Z,54.28
2023-01-04T16:51:30.667Z,54.42
2023-01-04T16:53:57.509Z,54.18
2023-01-04T16:56:25.106Z,54.04
2023-01-04T16:58:52.310Z,54.33
2023-01-04T17:01:27.874Z,53.79
2023-01-04T17:03:56.911Z,54.23
2023-01-04T17:06:26.579Z,53.61
2023-01-04T17:08:54.614Z,53.57
2023-01-04T17:12:11.521Z,53.97
2023-01-04T17:14:14.062Z,53.63
2023-01-04T17:16:40.874Z,53.59
2023-01-04T17:19:10.124Z,53.69
2023-01-04T17:21:36.806Z,53.38
2023-01-04T17:24:03.900Z,53.59
2023-01-04T17:26:32.422Z,53.37
2023-01-04T17:29:00.287Z,53.20
2023-01-04T17:31:29.320Z,53.05
2023-01-04T17:33:56.185Z,53.32
2023-01-04T17:36:23.078Z,53.25
2023-01-04T17:38:50.308Z,52.89
2023-01-04T17:41:21.095Z,53.02
2023-01-04T17:43:50.704Z,53.05
2023-01-04T17:46:23.427Z,52.71
2023-01-04T17:48:58.899Z,52.95
2023-01-04T17:51:38.698Z,52.93
2023-01-04T17:54:05.746Z,53.08
2023-01-04T17:56:33.448Z,53.15
2023-01-04T17:59:02.661Z,52.62
2023-01-04T18:01:30.386Z,53.16
2023-01-04T18:03:59.504Z,53.53
2023-01-04T18:06:31.440Z,53.87
2023-01-04T18:08:58.600Z,53.17
2023-01-04T18:11:25.509Z,53.17
2023-01-04T18:13:53.248Z,53.62
2023-01-04T18:18:47.326Z,53.24
2023-01-04T18:21:28.804Z,53.06
2023-01-04T18:27:20.013Z,53.34
2023-01-04T18:29:33.095Z,53.15
2023-01-04T18:31:59.721Z,52.89
2023-01-04T18:34:26.683Z,53.36
2023-01-04T18:36:53.847Z,53.09
2023-01-04T18:39:20.504Z,53.29
2023-01-04T18:41:48.180Z,53.00
2023-01-04T18:47:02.520Z,52.79
2023-01-04T18:49:29.260Z,52.80
2023-01-04T18:51:55.623Z,52.54
2023-01-04T18:54:22.213Z,52.52
2023-01-04T18:56:49.029Z,52.48
2023-01-04T18:59:17.333Z,52.43
2023-01-04T19:01:45.907Z,52.01
2023-01-04T19:04:13.987Z,52.17
2023-01-04T19:06:41.025Z,52.01
2023-01-04T19:09:08.150Z,52.13
2023-01-04T19:11:36.499Z,51.79
2023-01-04T19:14:04.152Z,51.94
2023-01-04T19:16:31.577Z,51.43
2023-01-04T19:19:01.266Z,51.41
2023-01-04T19:21:29.794Z,51.60
2023-01-04T19:23:56.375Z,51.63
2023-01-04T19:26:23.747Z,51.58
2023-01-04T19:28:51.380Z,51.29
2023-01-04T19:31:20.075Z,51.14
2023-01-04T19:33:47.170Z,51.38
2023-01-04T19:36:18.837Z,50.78
2023-01-04T19:38:45.699Z,51.03
2023-01-04T19:41:20.761Z,50.50
2023-01-04T19:43:47.388Z,51.09
2023-01-04T19:46:14.027Z,51.21
2023-01-04T19:48:41.152Z,50.72
2023-01-04T19:51:16.165Z,50.68
2023-01-04T19:53:44.986Z,50.72
2023-01-04T19:56:13.473Z,50.95
2023-01-04T19:58:40.629Z,50.71
2023-01-04T20:01:13.426Z,50.80
2023-01-04T20:03:39.911Z,50.55
2023-01-04T20:06:06.903Z,50.71
2023-01-04T20:08:33.696Z,50.48
2023-01-04T20:11:01.942Z,50.76
2023-01-04T20:13:29.961Z,50.32
2023-01-04T20:15:56.402Z,50.94
2023-01-04T20:18:24.111Z,50.67
2023-01-04T20:20:52.139Z,51.02
2023-01-04T20:23:19.544Z,50.80
2023-01-04T20:25:49.260Z,51.10
2023-01-04T20:28:18.497Z,50.88
2023-01-04T20:30:46.808Z,50.55
2023-01-04T20:33:13.348Z,50.57
2023-01-04T20:35:42.314Z,50.64
2023-01-04T20:38:10.101Z,50.58
2023-01-04T20:40:38.540Z,50.77
2023-01-04T20:43:23.466Z,50.60
2023-01-04T20:45:49.894Z,50.53
2023-01-04T20:48:16.643Z,50.37
2023-01-04T20:50:43.322Z,50.76
2023-01-04T20:53:13.721Z,50.74
2023-01-04T20:55:41.817Z,50.77
2023-01-04T20:58:10.578Z,50.79
2023-01-04T21:00:39.326Z,51.13
2023-01-04T21:03:07.614Z,50.96
2023-01-04T21:05:39.475Z,51.08
2023-01-04T21:08:06.476Z,50.98
2023-01-04T21:10:33.245Z,51.14
2023-01-04T21:12:59.640Z,50.92
2023-01-04T21:15:26.211Z,50.54
2023-01-04T21:17:52.637Z,51.26
2023-01-04T21:20:21.526Z,50.93
2023-01-04T21:22:47.993Z,51.32
2023-01-04T21:25:14.700Z,51.08
2023-01-04T21:27:41.117Z,51.17
2023-01-04T21:30:08.022Z,51.29
2023-01-04T21:32:34.478Z,51.32
2023-01-04T21:35:00.996Z,51.00
2023-01-04T21:37:29.425Z,51.10
2023-01-04T21:39:55.932Z,51.18
2023-01-04T21:42:22.629Z,51.01
2023-01-04T21:44:48.961Z,51.35
2023-01-04T21:47:15.782Z,51.25
2023-01-04T21:49:43.804Z,51.35
2023-01-04T21:52:11.277Z,51.42
2023-01-04T21:54:38.585Z,51.52
2023-01-04T21:57:08.174Z,51.65
2023-01-04T21:59:36.387Z,51.64
2023-01-04T22:02:03.469Z,51.76
2023-01-04T22:04:30.390Z,51.65
2023-01-04T22:06:57.068Z,51.71
2023-01-04T22:09:23.799Z,52.11
2023-01-04T22:11:50.750Z,51.88
2023-01-04T22:14:18.520Z,51.70
2023-01-04T22:16:45.025Z,52.03
2023-01-04T22:19:13.243Z,51.63
2023-01-04T22:21:40.435Z,51.50
2023-01-04T22:24:09.078Z,51.70
2023-01-04T22:26:35.775Z,51.59
2023-01-04T22:29:02.427Z,51.21
2023-01-04T22:31:28.954Z,51.32
2023-01-04T22:33:55.442Z,51.09
2023-01-04T22:36:23.772Z,50.99
2023-01-04T22:38:54.956Z,50.83
2023-01-04T22:41:24.171Z,51.04
2023-01-04T22:44:01.773Z,50.57
2023-01-04T22:46:29.322Z,51.05
2023-01-04T22:48:56.969Z,50.69
2023-01-04T22:51:25.407Z,51.06
2023-01-04T22:53:59.697Z,50.33
2023-01-04T22:56:26.910Z,50.63
2023-01-04T22:58:55.525Z,50.46
2023-01-04T23:01:28.130Z,49.65
2023-01-04T23:03:55.413Z,50.35
2023-01-04T23:06:22.689Z,50.36
2023-01-04T23:09:01.124Z,49.54
2023-01-04T23:11:28.402Z,50.08
2023-01-04T23:13:55.348Z,49.85
2023-01-04T23:16:27.884Z,49.54
2023-01-04T23:18:58.215Z,49.85
2023-01-04T23:21:24.549Z,50.04
2023-01-04T23:23:51.288Z,49.57
2023-01-04T23:26:21.012Z,49.72
2023-01-04T23:28:48.472Z,49.75
2023-01-04T23:31:16.728Z,49.79
2023-01-04T23:33:43.351Z,49.76
2023-01-04T23:36:21.396Z,49.56
2023-01-04T23:38:54.098Z,49.19
2023-01-04T23:41:21.224Z,49.49
2023-01-04T23:43:47.672Z,49.69
2023-01-04T23:46:17.107Z,48.88
2023-01-04T23:48:44.681Z,49.41
2023-01-04T23:51:13.825Z,49.18
2023-01-04T23:53:40.222Z,48.93
2023-01-04T23:56:13.443Z,49.20
2023-01-04T23:58:39.894Z,49.23
